createdAt,value
2017-11-19T00:01:51.572Z,55.50
2017-11-19T00:04:22.370Z,55.50
2017-11-19T00:06:54.457Z,55.60
2017-11-19T00:09:25.830Z,55.60
2017-11-19T00:11:57.569Z,56.00
2017-11-19T00:14:28.310Z,56.20
2017-11-19T00:16:59.050Z,56.20
2017-11-19T00:19:33.350Z,56.30
2017-11-19T00:22:05.010Z,56.40
2017-11-19T00:24:35.650Z,56.30
2017-11-19T00:27:07.930Z,56.20
2017-11-19T00:29:39.052Z,56.90
2017-11-19T00:32:11.829Z,56.50
2017-11-19T00:34:44.370Z,56.60
2017-11-19T00:37:15.650Z,56.70
2017-11-19T00:39:47.349Z,56.80
2017-11-19T00:42:18.354Z,56.80
2017-11-19T00:44:50.210Z,56.80
2017-11-19T00:47:22.577Z,56.80
2017-11-19T00:49:55.049Z,57.20
2017-11-19T00:52:26.093Z,57.00
2017-11-19T00:54:57.949Z,57.50
2017-11-19T00:57:29.010Z,57.50
2017-11-19T01:00:01.969Z,57.90
2017-11-19T01:02:33.749Z,57.90
2017-11-19T01:05:11.549Z,58.10
2017-11-19T01:07:44.330Z,58.40
2017-11-19T01:10:16.369Z,58.00
2017-11-19T01:12:48.412Z,59.10
2017-11-19T01:15:19.370Z,58.70
2017-11-19T01:17:51.249Z,59.00
2017-11-19T01:20:24.129Z,58.30
2017-11-19T01:22:55.470Z,58.70
2017-11-19T01:25:27.352Z,58.70
2017-11-19T01:27:58.469Z,59.30
2017-11-19T01:30:30.409Z,59.50
2017-11-19T01:33:02.350Z,59.40
2017-11-19T01:35:33.655Z,59.50
2017-11-19T01:38:07.769Z,59.80
2017-11-19T01:40:40.653Z,59.80
2017-11-19T01:43:12.910Z,61.50
2017-11-19T01:45:44.972Z,61.60
2017-11-19T01:48:16.009Z,61.60
2017-11-19T01:50:47.049Z,62.00
2017-11-19T01:53:21.370Z,61.80
2017-11-19T01:55:58.052Z,60.90
2017-11-19T01:58:29.689Z,61.60
2017-11-19T02:01:02.070Z,61.70
2017-11-19T02:03:33.830Z,61.60
2017-11-19T02:06:04.773Z,61.50
2017-11-19T02:08:37.410Z,61.50
2017-11-19T02:11:09.292Z,61.50
2017-11-19T02:13:41.770Z,61.90
2017-11-19T02:16:13.233Z,61.70
2017-11-19T02:18:44.695Z,61.50
2017-11-19T02:21:21.369Z,62.00
2017-11-19T02:23:52.910Z,61.90
2017-11-19T02:26:25.369Z,62.10
2017-11-19T02:28:56.529Z,62.00
2017-11-19T02:31:28.369Z,63.00
2017-11-19T02:33:57.997Z,62.90
2017-11-19T02:36:30.049Z,63.20
2017-11-19T02:39:01.309Z,63.20
2017-11-19T02:41:33.051Z,62.60
2017-11-19T02:44:05.929Z,62.80
2017-11-19T02:46:37.089Z,62.80
2017-11-19T02:49:09.418Z,63.30
2017-11-19T02:51:40.069Z,63.30
2017-11-19T02:54:11.331Z,63.70
2017-11-19T02:56:42.269Z,64.00
2017-11-19T02:59:13.908Z,63.60
2017-11-19T03:01:46.493Z,64.10
2017-11-19T03:04:22.370Z,64.40
2017-11-19T03:06:57.271Z,64.50
2017-11-19T03:09:36.390Z,64.50
2017-11-19T03:12:07.426Z,64.40
2017-11-19T03:14:39.909Z,65.10
2017-11-19T03:17:11.690Z,64.50
2017-11-19T03:19:42.615Z,64.40
2017-11-19T03:22:13.416Z,64.70
2017-11-19T03:24:43.992Z,64.60
2017-11-19T03:27:23.010Z,64.90
2017-11-19T03:29:54.779Z,64.90
2017-11-19T03:32:25.610Z,65.10
2017-11-19T03:34:58.090Z,65.10
2017-11-19T03:37:30.349Z,65.80
2017-11-19T03:40:02.089Z,65.60
2017-11-19T03:42:33.250Z,65.20
2017-11-19T03:45:05.310Z,66.20
2017-11-19T03:47:36.351Z,65.90
2017-11-19T03:50:07.909Z,65.40
2017-11-19T03:52:39.149Z,65.10
2017-11-19T03:55:10.910Z,65.00
2017-11-19T03:57:41.850Z,65.30
2017-11-19T04:00:16.249Z,64.80
2017-11-19T04:02:47.509Z,64.60
2017-11-19T04:05:20.910Z,64.10
2017-11-19T04:07:51.949Z,64.10
2017-11-19T04:10:24.832Z,64.20
2017-11-19T04:13:00.992Z,64.10
2017-11-19T04:15:36.390Z,64.40
2017-11-19T04:18:08.789Z,65.00
2017-11-19T04:20:40.412Z,64.70
2017-11-19T04:23:11.909Z,64.40
2017-11-19T04:25:43.550Z,65.00
2017-11-19T04:28:14.596Z,64.70
2017-11-19T04:30:48.190Z,65.00
2017-11-19T04:33:19.329Z,65.00
2017-11-19T04:35:49.549Z,65.30
2017-11-19T04:38:20.489Z,65.40
2017-11-19T04:40:53.069Z,65.30
2017-11-19T04:43:29.406Z,65.60
2017-11-19T04:46:00.989Z,65.20
2017-11-19T04:48:32.350Z,65.10
2017-11-19T04:51:06.389Z,65.00
2017-11-19T04:53:37.909Z,65.20
2017-11-19T04:56:12.630Z,65.30
2017-11-19T04:58:44.909Z,65.20
2017-11-19T05:01:16.049Z,65.60
2017-11-19T05:03:47.089Z,65.50
2017-11-19T05:06:18.129Z,66.10
2017-11-19T05:08:49.969Z,65.60
2017-11-19T05:11:20.509Z,65.50
2017-11-19T05:13:52.869Z,66.00
2017-11-19T05:16:23.710Z,65.40
2017-11-19T05:18:55.869Z,65.40
2017-11-19T05:21:29.370Z,65.30
2017-11-19T05:24:00.210Z,65.30
2017-11-19T05:26:32.369Z,65.80
2017-11-19T05:29:07.831Z,65.70
2017-11-19T05:31:40.089Z,65.50
2017-11-19T05:34:18.209Z,65.30
2017-11-19T05:36:50.670Z,65.50
2017-11-19T05:39:23.050Z,66.00
2017-11-19T05:41:54.909Z,65.90
2017-11-19T05:44:27.070Z,65.90
2017-11-19T05:46:59.117Z,66.00
2017-11-19T05:49:31.291Z,66.00
2017-11-19T05:52:04.790Z,66.20
2017-11-19T05:54:35.829Z,66.10
2017-11-19T05:57:08.110Z,66.20
2017-11-19T05:59:40.069Z,66.80
2017-11-19T06:02:12.030Z,66.20
2017-11-19T06:04:42.970Z,66.00
2017-11-19T06:07:13.912Z,66.60
2017-11-19T06:09:48.410Z,65.80
2017-11-19T06:12:19.435Z,65.80
2017-11-19T06:14:50.610Z,65.60
2017-11-19T06:17:22.069Z,66.50
2017-11-19T06:19:52.506Z,65.80
2017-11-19T06:22:22.909Z,65.90
2017-11-19T06:24:53.850Z,66.20
2017-11-19T06:27:25.309Z,66.20
2017-11-19T06:29:58.169Z,66.30
2017-11-19T06:32:30.870Z,66.20
2017-11-19T06:35:02.930Z,66.50
2017-11-19T06:37:36.410Z,66.30
2017-11-19T06:40:07.452Z,66.40
2017-11-19T06:42:39.749Z,66.40
2017-11-19T06:45:11.897Z,66.50
2017-11-19T06:47:43.032Z,66.30
2017-11-19T06:50:13.665Z,66.70
2017-11-19T06:52:49.116Z,66.80
2017-11-19T06:55:19.512Z,67.00
2017-11-19T06:57:56.318Z,66.60
2017-11-19T07:00:29.398Z,67.70
2017-11-19T07:03:01.579Z,66.90
2017-11-19T07:05:33.417Z,66.70
2017-11-19T07:08:04.358Z,66.90
2017-11-19T07:10:35.923Z,66.90
2017-11-19T07:13:09.513Z,67.00
2017-11-19T07:15:40.253Z,67.00
2017-11-19T07:18:12.613Z,66.90
2017-11-19T07:20:44.793Z,66.90
2017-11-19T07:23:16.755Z,66.60
2017-11-19T07:25:51.174Z,66.50
2017-11-19T07:28:23.341Z,66.50
2017-11-19T07:30:55.470Z,66.30
2017-11-19T07:33:34.415Z,66.90
2017-11-19T07:36:07.534Z,66.30
2017-11-19T07:38:41.933Z,67.00
2017-11-19T07:41:15.334Z,66.30
2017-11-19T07:43:46.773Z,66.50
2017-11-19T07:46:17.633Z,66.40
2017-11-19T07:48:48.674Z,66.30
2017-11-19T07:51:20.832Z,66.00
2017-11-19T07:53:53.455Z,66.50
2017-11-19T07:56:26.393Z,66.60
2017-11-19T07:58:58.057Z,66.50
2017-11-19T08:01:30.113Z,66.80
2017-11-19T08:04:01.153Z,67.00
2017-11-19T08:06:32.094Z,67.10
2017-11-19T08:09:03.533Z,67.20
2017-11-19T08:11:34.378Z,67.20
2017-11-19T08:14:09.094Z,67.20
2017-11-19T08:16:40.147Z,67.00
2017-11-19T08:19:12.413Z,67.30
2017-11-19T08:21:43.413Z,67.30
2017-11-19T08:24:14.593Z,66.70
2017-11-19T08:26:46.655Z,66.40
2017-11-19T08:29:24.036Z,66.60
2017-11-19T08:31:54.284Z,66.60
2017-11-19T08:34:25.402Z,66.80
2017-11-19T08:36:56.242Z,66.80
2017-11-19T08:39:27.993Z,67.50
2017-11-19T08:42:03.962Z,67.50
2017-11-19T08:44:35.083Z,67.40
2017-11-19T08:47:09.302Z,66.80
2017-11-19T08:49:39.744Z,66.80
2017-11-19T08:52:10.362Z,67.10
2017-11-19T08:54:42.342Z,66.40
2017-11-19T08:57:12.863Z,66.70
2017-11-19T08:59:44.423Z,67.40
2017-11-19T09:02:16.806Z,67.20
2017-11-19T09:04:48.544Z,67.40
2017-11-19T09:07:21.721Z,67.20
2017-11-19T09:09:52.862Z,67.10
2017-11-19T09:12:24.122Z,68.00
2017-11-19T09:14:57.422Z,67.10
2017-11-19T09:17:29.883Z,67.40
2017-11-19T09:20:02.044Z,67.60
2017-11-19T09:22:33.802Z,67.70
2017-11-19T09:25:05.965Z,67.50
2017-11-19T09:27:39.435Z,67.20
2017-11-19T09:30:12.155Z,67.20
2017-11-19T09:32:45.756Z,67.70
2017-11-19T09:35:18.943Z,68.50
2017-11-19T09:37:50.398Z,68.60
2017-11-19T09:40:21.535Z,67.80
2017-11-19T09:42:52.575Z,68.50
2017-11-19T09:45:24.428Z,68.60
2017-11-19T09:47:56.456Z,68.50
2017-11-19T09:50:31.017Z,68.80
2017-11-19T09:53:02.786Z,68.60
2017-11-19T09:55:34.936Z,69.50
2017-11-19T09:58:07.476Z,68.90
2017-11-19T10:00:37.735Z,69.70
2017-11-19T10:03:10.836Z,69.50
2017-11-19T10:05:42.436Z,69.10
2017-11-19T10:08:13.437Z,69.30
2017-11-19T10:10:47.117Z,69.20
2017-11-19T10:13:21.136Z,69.20
2017-11-19T10:15:52.996Z,69.50
2017-11-19T10:18:26.275Z,69.30
2017-11-19T10:20:57.497Z,69.70
2017-11-19T10:23:29.995Z,69.80
2017-11-19T10:26:03.916Z,69.00
2017-11-19T10:28:35.977Z,69.00
2017-11-19T10:31:06.716Z,68.80
2017-11-19T10:33:37.441Z,69.10
2017-11-19T10:36:07.777Z,69.10
2017-11-19T10:38:41.376Z,69.00
2017-11-19T10:41:13.135Z,69.10
2017-11-19T10:43:44.975Z,69.10
2017-11-19T10:46:16.723Z,69.20
2017-11-19T10:48:47.596Z,69.80
2017-11-19T10:51:19.035Z,68.70
2017-11-19T10:53:52.835Z,67.70
2017-11-19T10:56:25.815Z,67.80
2017-11-19T10:58:57.056Z,67.00
2017-11-19T11:01:30.855Z,67.30
2017-11-19T11:04:02.622Z,68.60
2017-11-19T11:06:35.002Z,68.30
2017-11-19T11:09:05.716Z,68.30
2017-11-19T11:11:36.355Z,66.50
2017-11-19T11:14:10.687Z,65.30
2017-11-19T11:16:42.327Z,66.00
2017-11-19T11:19:16.026Z,67.60
2017-11-19T11:21:49.325Z,65.40
2017-11-19T11:24:20.566Z,66.30
2017-11-19T11:26:54.455Z,65.50
2017-11-19T11:29:24.907Z,65.50
2017-11-19T11:31:55.327Z,66.70
2017-11-19T11:34:26.167Z,67.50
2017-11-19T11:36:56.785Z,66.60
2017-11-19T11:39:28.046Z,67.60
2017-11-19T11:41:59.605Z,66.60
2017-11-19T11:44:30.645Z,64.60
2017-11-19T11:47:01.365Z,64.60
2017-11-19T11:49:31.785Z,65.00
2017-11-19T11:52:02.326Z,64.80
2017-11-19T11:54:34.449Z,65.60
2017-11-19T11:57:05.625Z,65.00
2017-11-19T11:59:36.165Z,64.90
2017-11-19T12:02:08.026Z,65.70
2017-11-19T12:04:39.166Z,66.30
2017-11-19T12:07:11.026Z,66.20
2017-11-19T12:09:42.985Z,67.00
2017-11-19T12:12:15.565Z,66.60
2017-11-19T12:14:47.305Z,67.20
2017-11-19T12:17:18.466Z,66.40
2017-11-19T12:19:52.666Z,66.50
2017-11-19T12:22:24.319Z,66.30
2017-11-19T12:24:55.366Z,66.20
2017-11-19T12:27:27.326Z,65.90
2017-11-19T12:30:01.447Z,64.70
2017-11-19T12:32:32.186Z,65.30
2017-11-19T12:35:09.147Z,65.70
2017-11-19T12:37:47.667Z,65.60
2017-11-19T12:40:19.327Z,64.60
2017-11-19T12:42:51.287Z,64.60
2017-11-19T12:45:23.547Z,64.60
2017-11-19T12:47:55.468Z,62.90
2017-11-19T12:50:29.826Z,62.00
2017-11-19T12:53:03.848Z,62.00
2017-11-19T12:55:35.407Z,62.10
2017-11-19T12:58:06.507Z,61.90
2017-11-19T13:00:37.587Z,61.80
2017-11-19T13:03:09.227Z,63.70
2017-11-19T13:05:40.466Z,64.30
2017-11-19T13:08:11.930Z,64.10
2017-11-19T13:10:41.927Z,64.10
2017-11-19T13:13:13.707Z,65.00
2017-11-19T13:15:44.526Z,64.30
2017-11-19T13:18:16.517Z,64.20
2017-11-19T13:20:49.187Z,64.40
2017-11-19T13:23:20.207Z,64.30
2017-11-19T13:25:56.267Z,65.00
2017-11-19T13:28:26.608Z,64.90
2017-11-19T13:30:57.647Z,64.90
2017-11-19T13:33:29.188Z,63.80
2017-11-19T13:36:00.327Z,63.40
2017-11-19T13:38:32.286Z,64.60
2017-11-19T13:41:03.506Z,63.90
2017-11-19T13:43:35.287Z,64.50
2017-11-19T13:46:06.847Z,63.70
2017-11-19T13:48:38.486Z,63.50
2017-11-19T13:51:10.568Z,63.30
2017-11-19T13:53:42.487Z,63.60
2017-11-19T13:56:14.187Z,63.00
2017-11-19T13:58:45.948Z,62.60
2017-11-19T14:01:17.088Z,63.80
2017-11-19T14:03:48.028Z,63.30
2017-11-19T14:06:19.168Z,63.00
2017-11-19T14:08:50.627Z,63.80
2017-11-19T14:11:21.867Z,62.80
2017-11-19T14:13:53.306Z,63.00
2017-11-19T14:16:27.826Z,64.00
2017-11-19T14:19:02.367Z,63.20
2017-11-19T14:21:33.387Z,63.20
2017-11-19T14:24:05.771Z,64.00
2017-11-19T14:26:38.649Z,64.50
2017-11-19T14:29:15.467Z,64.80
2017-11-19T14:31:50.150Z,64.80
2017-11-19T14:34:24.793Z,64.80
2017-11-19T14:36:57.247Z,64.80
2017-11-19T14:39:31.968Z,64.40
2017-11-19T14:42:04.247Z,64.40
2017-11-19T14:44:36.467Z,65.40
2017-11-19T14:47:07.487Z,64.70
2017-11-19T14:49:39.207Z,65.30
2017-11-19T14:52:11.587Z,65.50
2017-11-19T14:54:42.627Z,66.30
2017-11-19T14:57:18.154Z,66.10
2017-11-19T14:59:50.427Z,66.10
2017-11-19T15:02:21.567Z,66.10
2017-11-19T15:04:52.467Z,65.40
2017-11-19T15:07:24.367Z,65.80
2017-11-19T15:09:55.466Z,65.70
2017-11-19T15:12:27.166Z,65.60
2017-11-19T15:14:58.813Z,65.50
2017-11-19T15:17:31.487Z,65.40
2017-11-19T15:20:06.027Z,65.70
2017-11-19T15:22:37.487Z,65.70
2017-11-19T15:25:08.307Z,65.10
2017-11-19T15:27:40.600Z,65.60
2017-11-19T15:30:12.506Z,65.70
2017-11-19T15:32:44.407Z,65.60
2017-11-19T15:35:17.387Z,65.50
2017-11-19T15:37:48.847Z,65.40
2017-11-19T15:40:21.427Z,66.10
2017-11-19T15:42:52.247Z,66.00
2017-11-19T15:45:23.186Z,66.20
2017-11-19T15:47:57.208Z,67.20
2017-11-19T15:50:29.988Z,66.50
2017-11-19T15:53:01.027Z,66.70
2017-11-19T15:55:34.312Z,66.40
2017-11-19T15:58:09.027Z,66.50
2017-11-19T16:00:40.787Z,66.00
2017-11-19T16:03:11.727Z,66.30
2017-11-19T16:05:43.912Z,66.50
2017-11-19T16:08:16.167Z,66.10
2017-11-19T16:10:47.830Z,66.50
2017-11-19T16:13:20.594Z,67.00
2017-11-19T16:15:52.859Z,66.90
2017-11-19T16:18:23.606Z,66.60
2017-11-19T16:20:55.364Z,66.90
2017-11-19T16:23:26.483Z,66.90
2017-11-19T16:25:57.344Z,66.40
2017-11-19T16:28:31.507Z,66.60
2017-11-19T16:31:02.592Z,66.60
2017-11-19T16:33:37.012Z,66.30
2017-11-19T16:36:08.472Z,66.40
2017-11-19T16:38:39.614Z,66.50
2017-11-19T16:41:09.833Z,66.50
2017-11-19T16:43:40.972Z,66.30
2017-11-19T16:46:13.512Z,66.30
2017-11-19T16:48:48.273Z,66.60
2017-11-19T16:51:23.492Z,66.80
2017-11-19T16:53:55.052Z,66.70
2017-11-19T16:56:26.412Z,67.10
2017-11-19T16:58:56.494Z,66.30
2017-11-19T17:01:27.472Z,66.70
2017-11-19T17:03:59.151Z,66.70
2017-11-19T17:06:30.273Z,67.10
2017-11-19T17:09:03.052Z,66.70
2017-11-19T17:11:36.512Z,66.60
2017-11-19T17:14:09.833Z,66.30
2017-11-19T17:16:43.138Z,66.60
2017-11-19T17:19:16.233Z,66.80
2017-11-19T17:21:51.512Z,67.10
2017-11-19T17:24:24.033Z,66.80
2017-11-19T17:26:56.612Z,67.00
2017-11-19T17:29:28.672Z,66.80
2017-11-19T17:31:59.913Z,67.00
2017-11-19T17:34:31.671Z,67.60
2017-11-19T17:37:04.491Z,67.30
2017-11-19T17:39:37.860Z,66.80
2017-11-19T17:42:09.412Z,66.40
2017-11-19T17:44:40.652Z,66.20
2017-11-19T17:47:12.611Z,66.50
2017-11-19T17:49:50.492Z,66.90
2017-11-19T17:52:22.492Z,66.40
2017-11-19T17:54:54.232Z,67.40
2017-11-19T17:57:27.732Z,66.70
2017-11-19T17:59:59.392Z,66.60
2017-11-19T18:02:32.991Z,66.40
2017-11-19T18:05:08.734Z,66.40
2017-11-19T18:07:44.206Z,67.10
2017-11-19T18:10:16.331Z,66.60
2017-11-19T18:12:47.391Z,66.50
2017-11-19T18:15:20.072Z,67.20
2017-11-19T18:17:52.133Z,66.70
2017-11-19T18:20:23.692Z,66.40
2017-11-19T18:22:55.852Z,66.40
2017-11-19T18:25:26.992Z,66.40
2017-11-19T18:27:58.954Z,65.70
2017-11-19T18:30:30.091Z,65.90
2017-11-19T18:33:02.153Z,66.10
2017-11-19T18:35:33.012Z,66.00
2017-11-19T18:38:03.832Z,65.70
2017-11-19T18:40:37.852Z,65.70
2017-11-19T18:43:12.271Z,66.40
2017-11-19T18:45:42.391Z,66.30
2017-11-19T18:48:13.843Z,66.10
2017-11-19T18:50:45.071Z,66.60
2017-11-19T18:53:18.871Z,66.40
2017-11-19T18:55:49.811Z,66.40
2017-11-19T18:58:21.872Z,66.60
2017-11-19T19:00:52.612Z,65.90
2017-11-19T19:03:27.753Z,65.80
2017-11-19T19:05:59.711Z,66.30
2017-11-19T19:08:30.514Z,66.30
2017-11-19T19:11:01.551Z,66.70
2017-11-19T19:13:32.108Z,66.30
2017-11-19T19:16:03.151Z,66.30
2017-11-19T19:18:37.271Z,66.30
2017-11-19T19:21:10.513Z,66.50
2017-11-19T19:23:41.912Z,65.90
2017-11-19T19:26:15.014Z,67.00
2017-11-19T19:28:46.751Z,67.00
2017-11-19T19:31:18.611Z,67.00
2017-11-19T19:33:51.492Z,66.80
2017-11-19T19:36:22.660Z,66.70
2017-11-19T19:38:53.532Z,66.70
2017-11-19T19:41:26.252Z,66.30
2017-11-19T19:43:56.535Z,66.30
2017-11-19T19:46:27.213Z,66.30
2017-11-19T19:48:59.174Z,66.80
2017-11-19T19:51:30.512Z,66.00
2017-11-19T19:54:00.852Z,66.00
2017-11-19T19:56:33.213Z,66.40
2017-11-19T19:59:07.511Z,66.30
2017-11-19T20:01:37.853Z,66.30
2017-11-19T20:04:14.235Z,66.10
2017-11-19T20:06:47.417Z,67.20
2017-11-19T20:09:18.953Z,66.50
2017-11-19T20:11:50.512Z,66.60
2017-11-19T20:14:21.651Z,66.60
2017-11-19T20:16:54.232Z,66.10
2017-11-19T20:19:25.991Z,66.60
2017-11-19T20:21:57.332Z,66.70
2017-11-19T20:24:29.191Z,66.60
2017-11-19T20:27:01.352Z,67.30
2017-11-19T20:29:38.135Z,66.70
2017-11-19T20:32:10.595Z,66.70
2017-11-19T20:34:42.551Z,66.30
2017-11-19T20:37:15.372Z,66.30
2017-11-19T20:39:45.791Z,66.30
2017-11-19T20:42:19.071Z,66.60
2017-11-19T20:44:52.992Z,66.60
2017-11-19T20:47:24.951Z,66.70
2017-11-19T20:49:56.572Z,66.90
2017-11-19T20:52:28.552Z,66.70
2017-11-19T20:54:59.912Z,66.70
2017-11-19T20:57:31.051Z,66.70
2017-11-19T21:00:03.030Z,66.50
2017-11-19T21:02:35.071Z,66.50
2017-11-19T21:05:06.433Z,66.00
2017-11-19T21:07:39.112Z,66.10
2017-11-19T21:10:10.352Z,66.00
2017-11-19T21:12:43.953Z,66.00
2017-11-19T21:15:15.811Z,66.20
2017-11-19T21:17:46.951Z,65.90
2017-11-19T21:20:20.652Z,65.70
2017-11-19T21:22:52.233Z,65.70
2017-11-19T21:25:23.758Z,66.30
2017-11-19T21:27:56.133Z,65.90
2017-11-19T21:30:28.553Z,65.80
2017-11-19T21:33:02.487Z,65.80
2017-11-19T21:35:38.507Z,65.80
2017-11-19T21:38:11.654Z,65.50
2017-11-19T21:40:44.135Z,66.20
2017-11-19T21:43:16.492Z,65.30
2017-11-19T21:45:47.234Z,65.30
2017-11-19T21:48:19.195Z,65.30
2017-11-19T21:50:50.861Z,65.40
2017-11-19T21:53:26.795Z,65.60
2017-11-19T21:55:58.255Z,66.00
2017-11-19T21:58:31.654Z,65.30
2017-11-19T22:01:08.215Z,65.50
2017-11-19T22:03:39.535Z,66.50
2017-11-19T22:06:10.614Z,65.60
2017-11-19T22:08:45.237Z,65.50
2017-11-19T22:11:16.474Z,65.50
2017-11-19T22:13:47.214Z,65.80
2017-11-19T22:16:19.274Z,65.30
2017-11-19T22:18:50.596Z,65.10
2017-11-19T22:21:22.374Z,65.00
2017-11-19T22:23:54.561Z,65.60
2017-11-19T22:26:28.455Z,65.70
2017-11-19T22:29:06.555Z,65.60
2017-11-19T22:31:36.773Z,65.90
2017-11-19T22:34:07.919Z,65.70
2017-11-19T22:36:41.594Z,65.70
2017-11-19T22:39:15.014Z,65.90
2017-11-19T22:41:45.860Z,65.80
2017-11-19T22:44:16.797Z,65.10
2017-11-19T22:46:48.534Z,65.10
2017-11-19T22:49:26.254Z,65.20
2017-11-19T22:51:57.574Z,65.30
2017-11-19T22:54:33.259Z,65.40
2017-11-19T22:57:05.195Z,65.30
2017-11-19T22:59:36.137Z,64.80
2017-11-19T23:02:07.794Z,65.00
2017-11-19T23:04:38.535Z,65.70
2017-11-19T23:07:09.376Z,65.70
2017-11-19T23:09:42.653Z,65.80
2017-11-19T23:12:19.555Z,65.90
2017-11-19T23:14:50.675Z,65.90
2017-11-19T23:17:22.834Z,66.30
2017-11-19T23:19:55.435Z,65.10
2017-11-19T23:22:27.553Z,65.10
2017-11-19T23:24:59.366Z,65.30
2017-11-19T23:27:31.815Z,65.30
2017-11-19T23:30:02.954Z,65.00
2017-11-19T23:32:36.554Z,65.30
2017-11-19T23:35:08.434Z,65.50
2017-11-19T23:37:39.254Z,65.40
2017-11-19T23:40:10.196Z,65.00
2017-11-19T23:42:42.054Z,65.10
2017-11-19T23:45:12.694Z,65.10
2017-11-19T23:47:44.614Z,66.10
2017-11-19T23:50:15.701Z,66.00
2017-11-19T23:52:47.974Z,66.00
2017-11-19T23:55:20.314Z,66.20
2017-11-19T23:57:56.560Z,65.50
